createdAt,value
2019-02-27T00:03:29.199Z,92.30
2019-02-27T00:18:34.497Z,91.80
2019-02-27T00:33:52.420Z,91.10
2019-02-27T00:48:59.358Z,91.30
2019-02-27T01:04:04.475Z,92.70
2019-02-27T01:19:09.824Z,93.80
2019-02-27T01:34:26.760Z,94.50
2019-02-27T01:49:31.816Z,96.20
2019-02-27T02:04:52.950Z,96.90
2019-02-27T02:20:00.212Z,97.00
2019-02-27T02:35:06.572Z,97.80
2019-02-27T02:50:17.407Z,97.80
2019-02-27T03:05:23.613Z,98.10
2019-02-27T03:20:32.049Z,98.40
2019-02-27T03:35:40.618Z,98.40
2019-02-27T03:51:06.417Z,98.50
2019-02-27T04:06:19.999Z,99.20
2019-02-27T04:21:24.935Z,99.90
2019-02-27T04:36:40.866Z,99.90
2019-02-27T04:51:48.060Z,99.90
2019-02-27T05:07:05.212Z,99.90
2019-02-27T05:22:10.812Z,99.90
2019-02-27T05:37:16.260Z,99.90
2019-02-27T05:52:21.270Z,99.90
2019-02-27T06:07:26.538Z,99.90
2019-02-27T06:22:44.238Z,99.90
2019-02-27T06:37:50.730Z,99.90
2019-02-27T06:52:57.033Z,99.90
2019-02-27T07:08:15.370Z,99.90
2019-02-27T07:23:32.405Z,99.90
2019-02-27T07:38:38.706Z,99.90
2019-02-27T07:53:44.339Z,99.90
2019-02-27T08:09:01.670Z,99.90
2019-02-27T08:24:19.821Z,99.10
2019-02-27T08:39:24.921Z,96.50
2019-02-27T08:54:32.160Z,93.70
2019-02-27T09:09:36.771Z,91.80
2019-02-27T09:24:43.791Z,90.10
2019-02-27T09:39:48.869Z,88.00
2019-02-27T09:54:54.880Z,82.90
2019-02-27T10:10:00.297Z,81.50
2019-02-27T10:25:08.524Z,78.60
2019-02-27T10:40:17.071Z,77.70
2019-02-27T10:55:23.420Z,76.10
2019-02-27T11:10:28.823Z,72.80
2019-02-27T11:25:34.420Z,74.60
2019-02-27T11:40:42.596Z,75.20
2019-02-27T11:55:47.295Z,76.70
2019-02-27T12:10:53.177Z,77.90
2019-02-27T12:25:59.899Z,76.80
2019-02-27T12:41:06.176Z,70.60
2019-02-27T12:56:30.377Z,66.90
2019-02-27T13:11:35.628Z,64.70
2019-02-27T13:26:41.004Z,63.40
2019-02-27T13:41:46.752Z,61.80
2019-02-27T13:56:51.599Z,61.20
2019-02-27T14:11:58.731Z,61.30
2019-02-27T14:27:03.495Z,61.50
2019-02-27T14:42:08.982Z,58.90
2019-02-27T14:57:16.054Z,56.30
2019-02-27T15:12:21.174Z,51.60
2019-02-27T15:27:26.248Z,53.00
2019-02-27T15:42:32.205Z,56.20
2019-02-27T15:57:38.779Z,58.70
2019-02-27T16:12:43.880Z,59.10
2019-02-27T16:27:49.259Z,61.30
2019-02-27T16:42:54.548Z,64.10
2019-02-27T16:58:01.734Z,67.50
2019-02-27T17:13:06.171Z,71.60
2019-02-27T17:28:12.115Z,74.70
2019-02-27T17:43:18.039Z,77.90
2019-02-27T17:58:23.224Z,80.70
2019-02-27T18:13:28.453Z,80.50
2019-02-27T18:28:34.862Z,82.40
2019-02-27T18:43:40.127Z,82.10
2019-02-27T18:58:45.922Z,81.40
2019-02-27T19:13:51.352Z,81.10
2019-02-27T19:28:59.325Z,79.50
2019-02-27T19:44:03.282Z,81.20
2019-02-27T19:59:08.835Z,80.90
2019-02-27T20:14:14.103Z,81.20
2019-02-27T20:29:20.397Z,80.30
2019-02-27T20:44:25.837Z,81.30
2019-02-27T20:59:30.981Z,82.60
2019-02-27T21:14:36.103Z,83.80
2019-02-27T21:29:43.368Z,84.40
2019-02-27T21:44:48.535Z,85.00
2019-02-27T21:59:55.184Z,85.80
2019-02-27T22:15:00.642Z,86.70
2019-02-27T22:30:09.004Z,87.20
2019-02-27T22:45:18.014Z,87.00
2019-02-27T23:00:37.039Z,84.40
2019-02-27T23:15:42.133Z,84.60
2019-02-27T23:30:48.015Z,84.30
2019-02-27T23:45:53.498Z,84.30
